sensor_id;sensor_type;location;lat;lon;timestamp;pressure;altitude;pressure_sealevel;temperature;humidity
46756;BME280;32506;52.826;-1.192;2023-08-06T00:02:03;100700.81;;;12.12;58.30
46756;BME280;32506;52.826;-1.192;2023-08-06T00:04:29;100698.53;;;12.08;57.99
46756;BME280;32506;52.826;-1.192;2023-08-06T00:06:57;100703.31;;;12.06;58.02
46756;BME280;32506;52.826;-1.192;2023-08-06T00:09:22;100698.41;;;12.03;57.90
46756;BME280;32506;52.826;-1.192;2023-08-06T00:11:48;100709.31;;;12.02;57.88
46756;BME280;32506;52.826;-1.192;2023-08-06T00:14:13;100704.63;;;11.97;57.90
46756;BME280;32506;52.826;-1.192;2023-08-06T00:16:43;100700.53;;;11.95;58.19
46756;BME280;32506;52.826;-1.192;2023-08-06T00:19:08;100703.63;;;11.91;58.08
46756;BME280;32506;52.826;-1.192;2023-08-06T00:21:34;100710.22;;;11.89;57.99
46756;BME280;32506;52.826;-1.192;2023-08-06T00:23:59;100716.22;;;11.84;58.32
46756;BME280;32506;52.826;-1.192;2023-08-06T00:26:25;100717.28;;;11.83;57.90
46756;BME280;32506;52.826;-1.192;2023-08-06T00:28:50;100718.53;;;11.81;57.85
46756;BME280;32506;52.826;-1.192;2023-08-06T00:31:15;100720.81;;;11.77;57.79
46756;BME280;32506;52.826;-1.192;2023-08-06T00:33:41;100712.19;;;11.75;57.79
46756;BME280;32506;52.826;-1.192;2023-08-06T00:36:06;100713.47;;;11.72;57.88
46756;BME280;32506;52.826;-1.192;2023-08-06T00:38:32;100717.59;;;11.68;58.06
46756;BME280;32506;52.826;-1.192;2023-08-06T00:40:57;100718.84;;;11.66;58.10
46756;BME280;32506;52.826;-1.192;2023-08-06T00:43:23;100720.09;;;11.63;57.88
46756;BME280;32506;52.826;-1.192;2023-08-06T00:45:48;100725.06;;;11.59;58.09
46756;BME280;32506;52.826;-1.192;2023-08-06T00:48:14;100727.34;;;11.56;57.90
46756;BME280;32506;52.826;-1.192;2023-08-06T00:50:40;100729.44;;;11.54;57.91
46756;BME280;32506;52.826;-1.192;2023-08-06T00:53:06;100725.53;;;11.50;57.90
46756;BME280;32506;52.826;-1.192;2023-08-06T00:55:32;100729.47;;;11.47;57.59
46756;BME280;32506;52.826;-1.192;2023-08-06T00:57:58;100734.41;;;11.44;57.58
46756;BME280;32506;52.826;-1.192;2023-08-06T01:00:24;100735.66;;;11.41;57.98
46756;BME280;32506;52.826;-1.192;2023-08-06T01:02:50;100740.44;;;11.39;57.79
46756;BME280;32506;52.826;-1.192;2023-08-06T01:05:15;100738.16;;;11.36;57.95
46756;BME280;32506;52.826;-1.192;2023-08-06T01:10:45;100742.72;;;11.29;58.00
46756;BME280;32506;52.826;-1.192;2023-08-06T01:13:46;100747.47;;;11.27;57.98
46756;BME280;32506;52.826;-1.192;2023-08-06T01:16:17;100754.28;;;11.22;58.03
46756;BME280;32506;52.826;-1.192;2023-08-06T01:18:43;100756.34;;;11.20;57.96
46756;BME280;32506;52.826;-1.192;2023-08-06T01:21:12;100752.25;;;11.18;58.10
46756;BME280;32506;52.826;-1.192;2023-08-06T01:23:38;100761.53;;;11.15;57.83
46756;BME280;32506;52.826;-1.192;2023-08-06T01:26:25;100767.09;;;11.14;57.96
46756;BME280;32506;52.826;-1.192;2023-08-06T01:28:56;100758.66;;;11.10;57.91
46756;BME280;32506;52.826;-1.192;2023-08-06T01:31:28;100754.75;;;11.06;58.08
46756;BME280;32506;52.826;-1.192;2023-08-06T01:33:55;100767.53;;;11.04;58.00
46756;BME280;32506;52.826;-1.192;2023-08-06T01:36:22;100760.53;;;11.03;57.87
46756;BME280;32506;52.826;-1.192;2023-08-06T01:38:48;100762.59;;;11.01;57.91
46756;BME280;32506;52.826;-1.192;2023-08-06T01:41:13;100764.69;;;10.99;58.19
46756;BME280;32506;52.826;-1.192;2023-08-06T01:43:39;100769.41;;;10.97;57.95
46756;BME280;32506;52.826;-1.192;2023-08-06T01:46:04;100773.31;;;10.94;57.96
46756;BME280;32506;52.826;-1.192;2023-08-06T01:48:30;100775.41;;;10.92;58.14
46756;BME280;32506;52.826;-1.192;2023-08-06T01:50:55;100776.63;;;10.89;58.16
46756;BME280;32506;52.826;-1.192;2023-08-06T01:53:21;100788.56;;;10.87;57.92
46756;BME280;32506;52.826;-1.192;2023-08-06T01:55:49;100787.94;;;10.85;57.81
46756;BME280;32506;52.826;-1.192;2023-08-06T01:58:15;100792.91;;;10.81;57.70
46756;BME280;32506;52.826;-1.192;2023-08-06T02:00:41;100789.59;;;10.79;57.83
46756;BME280;32506;52.826;-1.192;2023-08-06T02:03:06;100794.34;;;10.77;57.78
46756;BME280;32506;52.826;-1.192;2023-08-06T02:05:31;100791.88;;;10.75;57.81
46756;BME280;32506;52.826;-1.192;2023-08-06T02:07:57;100786.94;;;10.72;57.78
46756;BME280;32506;52.826;-1.192;2023-08-06T02:10:23;100793.53;;;10.70;57.63
46756;BME280;32506;52.826;-1.192;2023-08-06T02:12:48;100779.56;;;10.68;58.05
46756;BME280;32506;52.826;-1.192;2023-08-06T02:15:14;100793.94;;;10.67;57.88
46756;BME280;32506;52.826;-1.192;2023-08-06T02:17:39;100790.66;;;10.65;58.12
46756;BME280;32506;52.826;-1.192;2023-08-06T02:20:05;100791.88;;;10.62;57.81
46756;BME280;32506;52.826;-1.192;2023-08-06T02:22:31;100790.25;;;10.61;57.87
46756;BME280;32506;52.826;-1.192;2023-08-06T02:24:56;100793.97;;;10.60;57.96
46756;BME280;32506;52.826;-1.192;2023-08-06T02:27:22;100789.03;;;10.57;57.91
46756;BME280;32506;52.826;-1.192;2023-08-06T02:29:47;100789.25;;;10.55;57.78
46756;BME280;32506;52.826;-1.192;2023-08-06T02:32:13;100789.44;;;10.54;57.94
46756;BME280;32506;52.826;-1.192;2023-08-06T02:34:38;100804.03;;;10.51;57.81
46756;BME280;32506;52.826;-1.192;2023-08-06T02:37:04;100797.06;;;10.50;57.97
46756;BME280;32506;52.826;-1.192;2023-08-06T02:39:29;100799.09;;;10.48;57.68
46756;BME280;32506;52.826;-1.192;2023-08-06T02:41:55;100799.31;;;10.47;57.62
46756;BME280;32506;52.826;-1.192;2023-08-06T02:44:20;100805.91;;;10.44;57.72
46756;BME280;32506;52.826;-1.192;2023-08-06T02:46:45;100801.56;;;10.43;57.72
46756;BME280;32506;52.826;-1.192;2023-08-06T02:49:11;100801.19;;;10.39;57.50
46756;BME280;32506;52.826;-1.192;2023-08-06T02:51:36;100802.19;;;10.38;57.78
46756;BME280;32506;52.826;-1.192;2023-08-06T02:54:02;100804.25;;;10.36;57.94
46756;BME280;32506;52.826;-1.192;2023-08-06T02:56:27;100802.78;;;10.34;57.77
46756;BME280;32506;52.826;-1.192;2023-08-06T02:58:53;100798.66;;;10.31;57.49
46756;BME280;32506;52.826;-1.192;2023-08-06T03:01:18;100806.88;;;10.30;57.66
46756;BME280;32506;52.826;-1.192;2023-08-06T03:03:43;100803.63;;;10.28;57.70
46756;BME280;32506;52.826;-1.192;2023-08-06T03:06:09;100801.97;;;10.27;57.62
46756;BME280;32506;52.826;-1.192;2023-08-06T03:08:35;100802.16;;;10.25;57.67
46756;BME280;32506;52.826;-1.192;2023-08-06T03:11:00;100807.09;;;10.21;57.60
46756;BME280;32506;52.826;-1.192;2023-08-06T03:13:25;100806.50;;;10.19;57.53
46756;BME280;32506;52.826;-1.192;2023-08-06T03:15:55;100806.50;;;10.19;57.36
46756;BME280;32506;52.826;-1.192;2023-08-06T03:18:21;100809.56;;;10.16;57.15
46756;BME280;32506;52.826;-1.192;2023-08-06T03:20:47;100816.13;;;10.14;57.47
46756;BME280;32506;52.826;-1.192;2023-08-06T03:23:12;100810.19;;;10.12;57.33
46756;BME280;32506;52.826;-1.192;2023-08-06T03:25:38;100804.19;;;10.10;57.48
46756;BME280;32506;52.826;-1.192;2023-08-06T03:28:03;100810.59;;;10.08;57.34
46756;BME280;32506;52.826;-1.192;2023-08-06T03:30:29;100816.94;;;10.07;57.47
46756;BME280;32506;52.826;-1.192;2023-08-06T03:32:54;100812.03;;;10.04;57.49
46756;BME280;32506;52.826;-1.192;2023-08-06T03:35:20;100817.38;;;10.04;57.32
46756;BME280;32506;52.826;-1.192;2023-08-06T03:37:46;100823.94;;;10.02;57.69
46756;BME280;32506;52.826;-1.192;2023-08-06T03:40:11;100824.09;;;10.00;57.46
46756;BME280;32506;52.826;-1.192;2023-08-06T03:42:37;100826.19;;;9.98;57.23
46756;BME280;32506;52.826;-1.192;2023-08-06T03:45:03;100816.72;;;9.96;57.18
46756;BME280;32506;52.826;-1.192;2023-08-06T03:47:28;100816.09;;;9.94;57.75
46756;BME280;32506;52.826;-1.192;2023-08-06T03:49:54;100815.28;;;9.93;57.23
46756;BME280;32506;52.826;-1.192;2023-08-06T03:52:19;100818.97;;;9.92;57.21
46756;BME280;32506;52.826;-1.192;2023-08-06T03:54:45;100812.19;;;9.89;57.21
46756;BME280;32506;52.826;-1.192;2023-08-06T03:57:10;100815.06;;;9.88;57.29
46756;BME280;32506;52.826;-1.192;2023-08-06T03:59:36;100811.78;;;9.86;57.24
46756;BME280;32506;52.826;-1.192;2023-08-06T04:02:01;100811.16;;;9.84;57.31
46756;BME280;32506;52.826;-1.192;2023-08-06T04:04:27;100817.50;;;9.83;57.08
46756;BME280;32506;52.826;-1.192;2023-08-06T04:06:52;100819.38;;;9.82;57.17
46756;BME280;32506;52.826;-1.192;2023-08-06T04:09:18;100821.41;;;9.80;57.23
46756;BME280;32506;52.826;-1.192;2023-08-06T04:11:44;100822.66;;;9.78;57.13
46756;BME280;32506;52.826;-1.192;2023-08-06T04:14:09;100827.16;;;9.77;56.94
46756;BME280;32506;52.826;-1.192;2023-08-06T04:16:34;100829.22;;;9.75;56.82
46756;BME280;32506;52.826;-1.192;2023-08-06T04:19:00;100833.72;;;9.74;56.87
46756;BME280;32506;52.826;-1.192;2023-08-06T04:21:25;100829.59;;;9.72;56.69
46756;BME280;32506;52.826;-1.192;2023-08-06T04:23:51;100832.47;;;9.70;56.63
46756;BME280;32506;52.826;-1.192;2023-08-06T04:26:16;100831.88;;;9.68;56.85
46756;BME280;32506;52.826;-1.192;2023-08-06T04:28:41;100833.69;;;9.68;56.66
46756;BME280;32506;52.826;-1.192;2023-08-06T04:31:07;100835.75;;;9.66;56.75
46756;BME280;32506;52.826;-1.192;2023-08-06T04:33:32;100833.28;;;9.64;56.65
46756;BME280;32506;52.826;-1.192;2023-08-06T04:35:59;100838.00;;;9.62;56.70
46756;BME280;32506;52.826;-1.192;2023-08-06T04:38:24;100840.88;;;9.61;56.46
46756;BME280;32506;52.826;-1.192;2023-08-06T04:40:53;100842.69;;;9.60;56.45
46756;BME280;32506;52.826;-1.192;2023-08-06T04:43:19;100838.59;;;9.57;56.43
46756;BME280;32506;52.826;-1.192;2023-08-06T04:45:53;100840.44;;;9.57;56.47
46756;BME280;32506;52.826;-1.192;2023-08-06T04:48:18;100846.78;;;9.56;56.43
46756;BME280;32506;52.826;-1.192;2023-08-06T04:50:47;100857.06;;;9.52;56.52
46756;BME280;32506;52.826;-1.192;2023-08-06T04:53:13;100853.53;;;9.52;56.38
46756;BME280;32506;52.826;-1.192;2023-08-06T04:55:39;100861.75;;;9.50;56.53
46756;BME280;32506;52.826;-1.192;2023-08-06T04:58:04;100856.63;;;9.49;56.48
46756;BME280;32506;52.826;-1.192;2023-08-06T05:00:30;100866.47;;;9.48;56.56
46756;BME280;32506;52.826;-1.192;2023-08-06T05:02:55;100862.97;;;9.48;56.29
46756;BME280;32506;52.826;-1.192;2023-08-06T05:05:21;100864.00;;;9.47;56.59
46756;BME280;32506;52.826;-1.192;2023-08-06T05:07:49;100867.69;;;9.46;56.29
46756;BME280;32506;52.826;-1.192;2023-08-06T05:10:15;100873.03;;;9.46;56.50
46756;BME280;32506;52.826;-1.192;2023-08-06T05:12:40;100874.84;;;9.45;56.47
46756;BME280;32506;52.826;-1.192;2023-08-06T05:15:06;100878.38;;;9.46;56.63
46756;BME280;32506;52.826;-1.192;2023-08-06T05:17:32;100877.53;;;9.45;56.73
46756;BME280;32506;52.826;-1.192;2023-08-06T05:19:57;100882.03;;;9.45;56.47
46756;BME280;32506;52.826;-1.192;2023-08-06T05:22:23;100892.53;;;9.46;56.67
46756;BME280;32506;52.826;-1.192;2023-08-06T05:24:49;100893.34;;;9.47;57.00
46756;BME280;32506;52.826;-1.192;2023-08-06T05:27:14;100889.03;;;9.46;56.94
46756;BME280;32506;52.826;-1.192;2023-08-06T05:29:39;100885.97;;;9.49;57.01
46756;BME280;32506;52.826;-1.192;2023-08-06T05:32:05;100891.94;;;9.51;57.11
46756;BME280;32506;52.826;-1.192;2023-08-06T05:34:31;100887.41;;;9.51;57.20
46756;BME280;32506;52.826;-1.192;2023-08-06T05:36:56;100896.06;;;9.53;57.21
46756;BME280;32506;52.826;-1.192;2023-08-06T05:39:22;100901.00;;;9.56;57.55
46756;BME280;32506;52.826;-1.192;2023-08-06T05:41:47;100894.63;;;9.57;57.64
46756;BME280;32506;52.826;-1.192;2023-08-06T05:44:12;100900.59;;;9.60;57.62
46756;BME280;32506;52.826;-1.192;2023-08-06T05:46:38;100907.16;;;9.64;57.88
46756;BME280;32506;52.826;-1.192;2023-08-06T05:49:03;100906.97;;;9.65;57.70
46756;BME280;32506;52.826;-1.192;2023-08-06T05:51:30;100911.94;;;9.68;57.60
46756;BME280;32506;52.826;-1.192;2023-08-06T05:53:55;100909.66;;;9.72;58.13
46756;BME280;32506;52.826;-1.192;2023-08-06T05:56:21;100916.47;;;9.74;58.20
46756;BME280;32506;52.826;-1.192;2023-08-06T05:58:46;100909.69;;;9.79;58.13
46756;BME280;32506;52.826;-1.192;2023-08-06T06:01:12;100910.13;;;9.82;58.33
46756;BME280;32506;52.826;-1.192;2023-08-06T06:03:38;100918.38;;;9.87;58.27
46756;BME280;32506;52.826;-1.192;2023-08-06T06:06:04;100917.97;;;9.90;58.61
46756;BME280;32506;52.826;-1.192;2023-08-06T06:08:29;100924.53;;;9.95;58.85
46756;BME280;32506;52.826;-1.192;2023-08-06T06:10:55;100927.66;;;9.98;58.94
46756;BME280;32506;52.826;-1.192;2023-08-06T06:13:20;100933.41;;;10.02;58.99
46756;BME280;32506;52.826;-1.192;2023-08-06T06:15:49;100930.94;;;10.07;59.28
46756;BME280;32506;52.826;-1.192;2023-08-06T06:18:14;100928.69;;;10.11;59.24
46756;BME280;32506;52.826;-1.192;2023-08-06T06:20:39;100927.06;;;10.16;59.16
46756;BME280;32506;52.826;-1.192;2023-08-06T06:23:05;100937.97;;;10.21;59.45
46756;BME280;32506;52.826;-1.192;2023-08-06T06:25:30;100940.88;;;10.27;59.35
46756;BME280;32506;52.826;-1.192;2023-08-06T06:27:56;100951.56;;;10.33;59.60
46756;BME280;32506;52.826;-1.192;2023-08-06T06:30:21;100944.84;;;10.37;59.82
46756;BME280;32506;52.826;-1.192;2023-08-06T06:32:47;100939.72;;;10.43;59.68
46756;BME280;32506;52.826;-1.192;2023-08-06T06:35:12;100945.06;;;10.49;59.60
46756;BME280;32506;52.826;-1.192;2023-08-06T06:37:38;100948.75;;;10.55;59.84
46756;BME280;32506;52.826;-1.192;2023-08-06T06:40:03;100948.16;;;10.60;59.71
46756;BME280;32506;52.826;-1.192;2023-08-06T06:42:29;100953.53;;;10.66;59.73
46756;BME280;32506;52.826;-1.192;2023-08-06T06:44:55;100946.53;;;10.72;59.73
46756;BME280;32506;52.826;-1.192;2023-08-06T06:47:20;100949.41;;;10.77;59.83
46756;BME280;32506;52.826;-1.192;2023-08-06T06:49:45;100953.94;;;10.83;60.20
46756;BME280;32506;52.826;-1.192;2023-08-06T06:52:11;100950.44;;;10.89;60.05
46756;BME280;32506;52.826;-1.192;2023-08-06T06:54:36;100945.91;;;10.97;59.83
46756;BME280;32506;52.826;-1.192;2023-08-06T06:57:02;100953.94;;;11.03;60.03
46756;BME280;32506;52.826;-1.192;2023-08-06T06:59:27;100956.00;;;11.08;60.49
46756;BME280;32506;52.826;-1.192;2023-08-06T07:01:53;100956.81;;;11.15;60.69
46756;BME280;32506;52.826;-1.192;2023-08-06T07:04:18;100958.44;;;11.23;60.73
46756;BME280;32506;52.826;-1.192;2023-08-06T07:06:44;100963.78;;;11.30;60.56
46756;BME280;32506;52.826;-1.192;2023-08-06T07:09:09;100962.94;;;11.36;60.88
46756;BME280;32506;52.826;-1.192;2023-08-06T07:11:35;100967.25;;;11.44;60.56
46756;BME280;32506;52.826;-1.192;2023-08-06T07:14:00;100970.53;;;11.52;61.18
46756;BME280;32506;52.826;-1.192;2023-08-06T07:16:26;100967.84;;;11.59;60.96
46756;BME280;32506;52.826;-1.192;2023-08-06T07:18:53;100974.63;;;11.68;61.19
46756;BME280;32506;52.826;-1.192;2023-08-06T07:21:19;100975.41;;;11.75;61.04
46756;BME280;32506;52.826;-1.192;2023-08-06T07:23:45;100977.84;;;11.84;61.45
46756;BME280;32506;52.826;-1.192;2023-08-06T07:26:11;100975.78;;;11.92;61.47
46756;BME280;32506;52.826;-1.192;2023-08-06T07:28:36;100979.06;;;12.01;61.53
46756;BME280;32506;52.826;-1.192;2023-08-06T07:31:03;100979.66;;;12.10;61.47
46756;BME280;32506;52.826;-1.192;2023-08-06T07:33:29;100985.34;;;12.20;62.09
46756;BME280;32506;52.826;-1.192;2023-08-06T07:35:54;100990.28;;;12.30;62.22
46756;BME280;32506;52.826;-1.192;2023-08-06T07:38:20;100987.13;;;12.40;61.75
46756;BME280;32506;52.826;-1.192;2023-08-06T07:40:45;100986.44;;;12.51;62.36
46756;BME280;32506;52.826;-1.192;2023-08-06T07:43:11;100988.66;;;12.61;62.44
46756;BME280;32506;52.826;-1.192;2023-08-06T07:45:37;100986.53;;;12.70;62.79
46756;BME280;32506;52.826;-1.192;2023-08-06T07:48:03;100995.72;;;12.81;62.68
46756;BME280;32506;52.826;-1.192;2023-08-06T07:50:28;100996.06;;;12.91;63.04
46756;BME280;32506;52.826;-1.192;2023-08-06T07:52:54;100991.06;;;13.01;62.96
46756;BME280;32506;52.826;-1.192;2023-08-06T07:55:19;101000.25;;;13.12;63.06
46756;BME280;32506;52.826;-1.192;2023-08-06T07:57:45;100993.34;;;13.23;63.30
46756;BME280;32506;52.826;-1.192;2023-08-06T08:00:11;100995.28;;;13.34;63.52
46756;BME280;32506;52.826;-1.192;2023-08-06T08:02:36;101002.44;;;13.47;63.24
46756;BME280;32506;52.826;-1.192;2023-08-06T08:05:02;101002.53;;;13.59;63.93
46756;BME280;32506;52.826;-1.192;2023-08-06T08:07:27;101004.84;;;13.74;64.13
46756;BME280;32506;52.826;-1.192;2023-08-06T08:09:55;101004.69;;;13.87;64.21
46756;BME280;32506;52.826;-1.192;2023-08-06T08:12:21;101007.22;;;14.01;64.26
46756;BME280;32506;52.826;-1.192;2023-08-06T08:14:46;101009.75;;;14.14;64.29
46756;BME280;32506;52.826;-1.192;2023-08-06T08:17:12;101008.75;;;14.27;64.61
46756;BME280;32506;52.826;-1.192;2023-08-06T08:19:37;101005.88;;;14.40;64.90
46756;BME280;32506;52.826;-1.192;2023-08-06T08:22:03;101002.19;;;14.53;64.46
46756;BME280;32506;52.826;-1.192;2023-08-06T08:24:29;101010.13;;;14.67;64.76
46756;BME280;32506;52.826;-1.192;2023-08-06T08:26:56;101009.69;;;14.82;64.97
46756;BME280;32506;52.826;-1.192;2023-08-06T08:29:22;101008.19;;;14.98;65.22
46756;BME280;32506;52.826;-1.192;2023-08-06T08:31:47;101008.53;;;15.13;65.30
46756;BME280;32506;52.826;-1.192;2023-08-06T08:34:18;101005.75;;;15.32;65.16
46756;BME280;32506;52.826;-1.192;2023-08-06T08:36:44;101000.72;;;15.47;64.87
46756;BME280;32506;52.826;-1.192;2023-08-06T08:39:12;100997.88;;;15.66;65.13
46756;BME280;32506;52.826;-1.192;2023-08-06T08:41:38;100998.25;;;15.81;65.08
46756;BME280;32506;52.826;-1.192;2023-08-06T08:44:08;100996.69;;;15.97;65.28
46756;BME280;32506;52.826;-1.192;2023-08-06T08:46:35;100990.53;;;16.14;64.91
46756;BME280;32506;52.826;-1.192;2023-08-06T08:49:02;101001.38;;;16.31;64.96
46756;BME280;32506;52.826;-1.192;2023-08-06T08:51:30;101004.09;;;16.48;64.47
46756;BME280;32506;52.826;-1.192;2023-08-06T08:53:56;100998.19;;;16.63;64.48
46756;BME280;32506;52.826;-1.192;2023-08-06T08:56:23;100999.75;;;16.75;64.17
46756;BME280;32506;52.826;-1.192;2023-08-06T08:58:49;101006.50;;;16.90;63.77
46756;BME280;32506;52.826;-1.192;2023-08-06T09:01:18;101012.38;;;17.04;63.86
46756;BME280;32506;52.826;-1.192;2023-08-06T09:03:44;101009.34;;;17.17;63.48
46756;BME280;32506;52.826;-1.192;2023-08-06T09:06:11;101004.69;;;17.30;63.54
46756;BME280;32506;52.826;-1.192;2023-08-06T09:08:49;101001.06;;;17.41;63.32
46756;BME280;32506;52.826;-1.192;2023-08-06T09:11:16;101011.53;;;17.54;63.24
46756;BME280;32506;52.826;-1.192;2023-08-06T09:13:42;101004.97;;;17.67;62.86
46756;BME280;32506;52.826;-1.192;2023-08-06T09:16:07;101020.56;;;17.82;63.21
46756;BME280;32506;52.826;-1.192;2023-08-06T09:18:33;101016.41;;;17.97;62.95
46756;BME280;32506;52.826;-1.192;2023-08-06T09:20:58;101010.97;;;18.14;62.40
46756;BME280;32506;52.826;-1.192;2023-08-06T09:23:28;101021.97;;;18.29;62.02
46756;BME280;32506;52.826;-1.192;2023-08-06T09:25:59;101018.59;;;18.44;62.25
46756;BME280;32506;52.826;-1.192;2023-08-06T09:28:36;101026.59;;;18.61;62.50
46756;BME280;32506;52.826;-1.192;2023-08-06T09:31:03;101018.59;;;18.71;62.01
46756;BME280;32506;52.826;-1.192;2023-08-06T09:33:29;101026.28;;;18.85;61.79
46756;BME280;32506;52.826;-1.192;2023-08-06T09:35:54;101027.22;;;18.95;61.06
46756;BME280;32506;52.826;-1.192;2023-08-06T09:38:20;101037.06;;;19.07;60.53
46756;BME280;32506;52.826;-1.192;2023-08-06T09:40:46;101037.97;;;19.18;59.99
46756;BME280;32506;52.826;-1.192;2023-08-06T09:43:12;101035.31;;;19.28;59.57
46756;BME280;32506;52.826;-1.192;2023-08-06T09:45:38;101034.59;;;19.38;59.33
46756;BME280;32506;52.826;-1.192;2023-08-06T09:48:08;101042.50;;;19.50;58.75
46756;BME280;32506;52.826;-1.192;2023-08-06T09:50:36;101037.41;;;19.58;58.32
46756;BME280;32506;52.826;-1.192;2023-08-06T09:53:02;101045.06;;;19.67;58.46
46756;BME280;32506;52.826;-1.192;2023-08-06T09:55:28;101047.28;;;19.75;58.33
46756;BME280;32506;52.826;-1.192;2023-08-06T09:57:54;101044.91;;;19.84;57.83
46756;BME280;32506;52.826;-1.192;2023-08-06T10:00:20;101055.00;;;19.93;57.79
46756;BME280;32506;52.826;-1.192;2023-08-06T10:02:46;101045.28;;;20.03;57.33
46756;BME280;32506;52.826;-1.192;2023-08-06T10:05:14;101054.25;;;20.14;57.16
46756;BME280;32506;52.826;-1.192;2023-08-06T10:07:42;101046.41;;;20.22;57.64
46756;BME280;32506;52.826;-1.192;2023-08-06T10:10:08;101049.44;;;20.31;57.04
46756;BME280;32506;52.826;-1.192;2023-08-06T10:12:37;101053.78;;;20.42;57.31
46756;BME280;32506;52.826;-1.192;2023-08-06T10:15:08;101051.38;;;20.51;56.44
46756;BME280;32506;52.826;-1.192;2023-08-06T10:17:36;101053.03;;;20.62;56.46
46756;BME280;32506;52.826;-1.192;2023-08-06T10:20:04;101056.88;;;20.72;56.67
46756;BME280;32506;52.826;-1.192;2023-08-06T10:22:32;101058.81;;;20.82;56.64
46756;BME280;32506;52.826;-1.192;2023-08-06T10:24:59;101052.56;;;20.91;55.93
46756;BME280;32506;52.826;-1.192;2023-08-06T10:29:56;101067.78;;;21.08;55.44
46756;BME280;32506;52.826;-1.192;2023-08-06T10:32:46;101061.78;;;21.16;55.25
46756;BME280;32506;52.826;-1.192;2023-08-06T10:37:53;101058.53;;;21.29;54.84
46756;BME280;32506;52.826;-1.192;2023-08-06T10:40:21;101060.16;;;21.36;54.91
46756;BME280;32506;52.826;-1.192;2023-08-06T10:42:46;101062.03;;;21.45;54.61
46756;BME280;32506;52.826;-1.192;2023-08-06T10:45:18;101057.44;;;21.56;54.60
46756;BME280;32506;52.826;-1.192;2023-08-06T10:47:44;101054.13;;;21.65;54.43
46756;BME280;32506;52.826;-1.192;2023-08-06T10:50:15;101059.28;;;21.76;54.44
46756;BME280;32506;52.826;-1.192;2023-08-06T10:52:43;101060.91;;;21.88;54.01
46756;BME280;32506;52.826;-1.192;2023-08-06T10:55:09;101056.50;;;21.97;53.85
46756;BME280;32506;52.826;-1.192;2023-08-06T10:57:34;101058.88;;;22.09;53.70
46756;BME280;32506;52.826;-1.192;2023-08-06T11:00:00;101062.38;;;22.20;53.93
46756;BME280;32506;52.826;-1.192;2023-08-06T11:02:25;101057.97;;;22.29;53.76
46756;BME280;32506;52.826;-1.192;2023-08-06T11:04:51;101049.78;;;22.39;53.31
46756;BME280;32506;52.826;-1.192;2023-08-06T11:07:16;101058.19;;;22.48;53.00
46756;BME280;32506;52.826;-1.192;2023-08-06T11:09:42;101053.50;;;22.59;52.66
46756;BME280;32506;52.826;-1.192;2023-08-06T11:12:10;101054.53;;;22.68;52.94
46756;BME280;32506;52.826;-1.192;2023-08-06T11:14:36;101060.44;;;22.81;52.30
46756;BME280;32506;52.826;-1.192;2023-08-06T11:17:02;101052.41;;;22.94;52.68
46756;BME280;32506;52.826;-1.192;2023-08-06T11:19:27;101059.94;;;23.13;53.36
46756;BME280;32506;52.826;-1.192;2023-08-06T11:21:54;101056.50;;;23.32;52.93
46756;BME280;32506;52.826;-1.192;2023-08-06T11:24:20;101064.47;;;23.52;53.19
46756;BME280;32506;52.826;-1.192;2023-08-06T11:26:45;101067.81;;;23.73;52.95
46756;BME280;32506;52.826;-1.192;2023-08-06T11:29:11;101067.59;;;23.94;52.97
46756;BME280;32506;52.826;-1.192;2023-08-06T11:31:36;101064.31;;;24.16;53.13
46756;BME280;32506;52.826;-1.192;2023-08-06T11:34:02;101058.56;;;24.37;52.63
46756;BME280;32506;52.826;-1.192;2023-08-06T11:36:37;101057.16;;;24.58;52.45
46756;BME280;32506;52.826;-1.192;2023-08-06T11:39:05;101056.69;;;24.75;52.38
46756;BME280;32506;52.826;-1.192;2023-08-06T11:41:31;101051.50;;;24.93;52.04
46756;BME280;32506;52.826;-1.192;2023-08-06T11:43:58;101053.44;;;25.06;51.01
46756;BME280;32506;52.826;-1.192;2023-08-06T11:46:24;101063.31;;;25.21;51.31
46756;BME280;32506;52.826;-1.192;2023-08-06T11:48:54;101058.47;;;25.32;50.78
46756;BME280;32506;52.826;-1.192;2023-08-06T11:51:22;101060.44;;;25.45;50.27
46756;BME280;32506;52.826;-1.192;2023-08-06T11:53:49;101053.16;;;25.55;50.07
46756;BME280;32506;52.826;-1.192;2023-08-06T11:56:15;101049.72;;;25.63;49.72
46756;BME280;32506;52.826;-1.192;2023-08-06T11:58:42;101046.59;;;25.70;49.74
46756;BME280;32506;52.826;-1.192;2023-08-06T12:01:07;101057.44;;;25.75;49.28
46756;BME280;32506;52.826;-1.192;2023-08-06T12:03:39;101055.41;;;25.80;49.30
46756;BME280;32506;52.826;-1.192;2023-08-06T12:06:04;101048.81;;;25.82;49.10
46756;BME280;32506;52.826;-1.192;2023-08-06T12:08:29;101049.31;;;25.84;48.92
46756;BME280;32506;52.826;-1.192;2023-08-06T12:10:55;101047.41;;;25.84;48.02
46756;BME280;32506;52.826;-1.192;2023-08-06T12:13:20;101052.88;;;25.84;47.51
46756;BME280;32506;52.826;-1.192;2023-08-06T12:15:46;101046.56;;;25.84;46.80
46756;BME280;32506;52.826;-1.192;2023-08-06T12:18:11;101048.50;;;25.83;46.11
46756;BME280;32506;52.826;-1.192;2023-08-06T12:20:37;101057.03;;;25.82;45.32
46756;BME280;32506;52.826;-1.192;2023-08-06T12:23:04;101057.66;;;25.78;44.87
46756;BME280;32506;52.826;-1.192;2023-08-06T12:25:29;101058.53;;;25.74;44.12
46756;BME280;32506;52.826;-1.192;2023-08-06T12:27:57;101055.59;;;25.70;43.85
46756;BME280;32506;52.826;-1.192;2023-08-06T12:30:23;101049.94;;;25.67;44.06
46756;BME280;32506;52.826;-1.192;2023-08-06T12:32:48;101051.03;;;25.66;44.66
46756;BME280;32506;52.826;-1.192;2023-08-06T12:35:13;101050.44;;;25.69;45.22
46756;BME280;32506;52.826;-1.192;2023-08-06T12:37:39;101054.19;;;25.73;44.29
46756;BME280;32506;52.826;-1.192;2023-08-06T12:40:05;101052.16;;;25.78;44.25
46756;BME280;32506;52.826;-1.192;2023-08-06T12:42:31;101050.13;;;25.84;44.30
46756;BME280;32506;52.826;-1.192;2023-08-06T12:44:58;101050.03;;;25.89;44.47
46756;BME280;32506;52.826;-1.192;2023-08-06T12:47:23;101047.16;;;25.94;45.25